Time;durP1;ratioP1;P1;durP2;ratioP2;P2;SDS_P1;SDS_P2;PMS_P1;PMS_P2;Temp;Humidity;BMP_temperature;BMP_pressure;BME280_temperature;BME280_humidity;BME280_pressure;Samples;Min_cycle;Max_cycle;Signal;HPM_P1;HPM_P2
2023/01/17 01:51:40;;;;;;;3.00;2.60;;;;;;;4.60;100.00;97848.13;5617883;28;20049;-85
2023/01/17 01:54:46;;;;;;;4.82;2.20;;;;;;;4.69;100.00;97841.47;6246592;28;20505;-85
2023/01/17 01:57:51;;;;;;;4.57;2.22;;;;;;;4.67;100.00;97830.41;6246574;28;20041;-81
2023/01/17 02:00:52;;;;;;;2.50;1.63;;;;;;;4.71;100.00;97824.09;6246866;28;20049;-81
2023/01/17 02:03:56;;;;;;;2.70;1.60;;;;;;;4.82;100.00;97830.13;6245815;28;20106;-81
2023/01/17 02:07:09;;;;;;;4.75;1.75;;;;;;;4.84;100.00;97828.25;6230142;28;20108;-81
2023/01/17 02:10:12;;;;;;;1.98;1.48;;;;;;;4.89;100.00;97827.09;6247475;28;20072;-81
2023/01/17 02:13:18;;;;;;;3.35;1.90;;;;;;;4.96;100.00;97839.47;6246362;28;20068;-85
2023/01/17 02:16:42;;;;;;;1.23;1.08;;;;;;;5.11;100.00;97841.88;6246365;28;20045;-85
2023/01/17 02:20:20;;;;;;;5.55;1.20;;;;;;;5.09;100.00;97836.78;6246260;28;20042;-80
2023/01/17 02:23:49;;;;;;;1.92;1.45;;;;;;;5.14;100.00;97844.19;6246211;28;20508;-85
2023/01/17 02:26:49;;;;;;;1.25;1.15;;;;;;;5.18;100.00;97833.50;6246101;28;20034;-85
2023/01/17 02:30:09;;;;;;;2.80;1.27;;;;;;;5.13;100.00;97835.63;6246239;28;20042;-85
2023/01/17 02:33:18;;;;;;;3.65;1.83;;;;;;;5.21;100.00;97829.91;6247243;28;20052;-85
2023/01/17 02:36:29;;;;;;;2.20;1.70;;;;;;;5.28;100.00;97827.69;6246980;28;20050;-85
2023/01/17 02:39:46;;;;;;;1.83;1.30;;;;;;;5.27;100.00;97834.59;6246980;28;20045;-85
2023/01/17 02:42:59;;;;;;;3.67;1.92;;;;;;;5.34;100.00;97822.03;6245753;28;20083;-85
2023/01/17 02:46:00;;;;;;;5.45;2.13;;;;;;;5.32;100.00;97834.25;6245668;28;20052;-85
2023/01/17 02:49:01;;;;;;;7.25;1.80;;;;;;;5.32;100.00;97826.50;6245809;28;20042;-85
2023/01/17 02:52:26;;;;;;;2.38;1.15;;;;;;;5.33;100.00;97822.97;6245372;28;20062;-81
2023/01/17 02:55:46;;;;;;;3.03;1.98;;;;;;;5.37;100.00;97817.44;6245566;28;20045;-81
2023/01/17 02:59:02;;;;;;;2.60;1.17;;;;;;;5.33;100.00;97820.38;6246382;28;20048;-82
2023/01/17 03:02:15;;;;;;;1.98;1.65;;;;;;;5.44;100.00;97810.06;6245362;28;20045;-86
2023/01/17 03:05:36;;;;;;;;;;;;;;;5.34;100.00;97804.75;6247180;28;20053;-85
2023/01/17 03:08:45;;;;;;;2.17;1.33;;;;;;;5.34;100.00;97802.16;6246263;28;19921;-86
2023/01/17 03:11:46;;;;;;;2.42;1.58;;;;;;;5.44;100.00;97807.47;6245444;28;20068;-81
2023/01/17 03:14:46;;;;;;;5.50;2.05;;;;;;;5.35;100.00;97808.97;6248879;28;20045;-80
2023/01/17 03:17:53;;;;;;;1.70;1.45;;;;;;;5.44;100.00;97821.22;6254780;28;20095;-81
2023/01/17 03:20:54;;;;;;;1.42;1.05;;;;;;;5.52;100.00;97806.88;6253331;28;20041;-80
2023/01/17 03:23:55;;;;;;;4.60;1.88;;;;;;;5.58;100.00;97806.41;6254539;28;20049;-80
2023/01/17 03:26:56;;;;;;;2.00;1.50;;;;;;;5.67;100.00;97816.06;6253410;28;20064;-81
2023/01/17 03:30:00;;;;;;;3.53;1.90;;;;;;;5.64;100.00;97806.78;6253315;28;20038;-85
2023/01/17 03:33:01;;;;;;;2.45;1.75;;;;;;;5.60;100.00;97800.19;6254718;28;20046;-85
2023/01/17 03:36:02;;;;;;;2.90;1.60;;;;;;;5.67;100.00;97805.72;6253295;28;20041;-81
2023/01/17 03:39:03;;;;;;;1.30;1.08;;;;;;;5.68;100.00;97802.19;6254412;28;20045;-84
2023/01/17 03:42:04;;;;;;;3.25;1.52;;;;;;;5.65;100.00;97799.84;6253158;28;20099;-84
2023/01/17 03:45:05;;;;;;;2.50;1.67;;;;;;;5.64;100.00;97795.59;6253307;28;20037;-84
2023/01/17 03:48:06;;;;;;;3.25;1.90;;;;;;;5.70;100.00;97797.72;6253221;28;20049;-84
2023/01/17 03:51:06;;;;;;;2.92;1.90;;;;;;;5.74;100.00;97795.72;6252814;28;20177;-85
2023/01/17 03:54:07;;;;;;;1.80;1.23;;;;;;;5.74;100.00;97803.47;6254316;28;20461;-85
2023/01/17 03:57:08;;;;;;;2.03;1.75;;;;;;;5.68;100.00;97791.81;6253081;28;20041;-85
2023/01/17 04:00:10;;;;;;;2.75;1.77;;;;;;;5.70;100.00;97789.94;6253013;28;20049;-85
2023/01/17 04:03:13;;;;;;;1.58;1.13;;;;;;;5.71;100.00;97778.66;6254127;28;20732;-81
2023/01/17 04:06:14;;;;;;;5.47;2.20;;;;;;;5.71;100.00;97777.84;6254306;28;20486;-81
2023/01/17 04:09:15;;;;;;;3.05;1.83;;;;;;;5.64;100.00;97767.97;6236353;28;20049;-81
2023/01/17 04:12:16;;;;;;;2.05;1.35;;;;;;;5.73;100.00;97760.44;6252753;28;20582;-81
2023/01/17 04:15:17;;;;;;;1.58;1.30;;;;;;;5.67;100.00;97768.69;6254094;28;20048;-80
2023/01/17 04:18:20;;;;;;;2.95;1.85;;;;;;;5.72;100.00;97744.06;6236428;28;20053;-81
2023/01/17 04:21:20;;;;;;;;;;;;;;;5.84;100.00;97735.34;6253187;28;20049;-81
2023/01/17 04:24:23;;;;;;;3.20;1.83;;;;;;;5.74;100.00;97731.84;6252645;28;19925;-84
2023/01/17 04:27:24;;;;;;;2.67;1.35;;;;;;;5.67;100.00;97750.56;6249628;28;20052;-85
2023/01/17 04:30:27;;;;;;;1.40;1.13;;;;;;;5.73;100.00;97737.16;6248819;28;20037;-85
2023/01/17 04:33:28;;;;;;;1.95;1.73;;;;;;;5.84;100.00;97748.28;6248930;28;20049;-85
2023/01/17 04:36:29;;;;;;;2.03;1.40;;;;;;;5.83;100.00;97748.44;6248799;28;20044;-84
2023/01/17 04:39:30;;;;;;;1.75;1.50;;;;;;;5.84;100.00;97737.94;6248734;28;20068;-85
2023/01/17 04:42:31;;;;;;;1.58;1.40;;;;;;;6.00;100.00;97739.38;6248411;28;20041;-81
2023/01/17 04:45:31;;;;;;;2.03;0.93;;;;;;;6.00;100.00;97734.19;6248360;28;20045;-81
2023/01/17 04:48:32;;;;;;;3.20;1.63;;;;;;;5.92;100.00;97733.94;6249572;28;20052;-84
2023/01/17 04:51:33;;;;;;;5.18;1.67;;;;;;;6.09;100.00;97743.00;6248213;28;20128;-84
2023/01/17 04:54:34;;;;;;;5.72;1.42;;;;;;;6.18;100.00;97734.50;6248399;28;20482;-84
2023/01/17 04:57:39;;;;;;;2.47;1.85;;;;;;;6.21;100.00;97736.84;6248256;28;20041;-84
2023/01/17 05:00:40;;;;;;;2.60;1.67;;;;;;;6.24;100.00;97742.59;6248261;28;20512;-84
2023/01/17 05:03:41;;;;;;;1.58;1.30;;;;;;;6.12;100.00;97732.41;6264589;28;20041;-85
2023/01/17 05:06:43;;;;;;;2.50;1.80;;;;;;;6.11;100.00;97757.44;6249686;28;20492;-79
2023/01/17 05:09:44;;;;;;;1.35;1.00;;;;;;;6.11;100.00;97772.16;6248005;28;20041;-79
2023/01/17 05:12:55;;;;;;;1.90;1.52;;;;;;;6.12;100.00;97766.06;6247841;28;20116;-80
2023/01/17 05:15:57;;;;;;;2.00;1.42;;;;;;;6.00;100.00;97735.00;6247850;28;20448;-85
2023/01/17 05:19:00;;;;;;;1.77;1.47;;;;;;;5.86;100.00;97761.94;6249256;28;20044;-80
2023/01/17 05:22:13;;;;;;;1.20;0.95;;;;;;;5.92;100.00;97741.72;6262337;28;20110;-85
2023/01/17 05:25:14;;;;;;;;;;;;;;;5.84;100.00;97766.41;6272937;28;20492;-84
2023/01/17 05:28:15;;;;;;;2.00;1.20;;;;;;;5.88;100.00;97763.59;6272270;28;19974;-80
2023/01/17 05:31:15;;;;;;;1.20;0.77;;;;;;;5.77;100.00;97772.22;6272376;28;20047;-84
2023/01/17 05:34:16;;;;;;;1.15;1.05;;;;;;;5.81;100.00;97771.03;6274213;28;20073;-84
2023/01/17 05:37:17;;;;;;;1.42;1.33;;;;;;;5.78;100.00;97763.50;6273854;28;20466;-85
2023/01/17 05:40:23;;;;;;;4.00;2.03;;;;;;;5.73;100.00;97756.09;6271522;28;20037;-80
2023/01/17 05:43:24;;;;;;;3.10;1.40;;;;;;;5.73;100.00;97760.44;6273094;28;20041;-80
2023/01/17 05:46:25;;;;;;;4.38;1.60;;;;;;;5.69;100.00;97759.84;6256153;28;20462;-81
2023/01/17 05:49:26;;;;;;;1.73;1.27;;;;;;;5.71;100.00;97752.78;6272787;28;20120;-81
2023/01/17 05:52:29;;;;;;;1.83;1.08;;;;;;;5.72;100.00;97756.19;6272514;28;20064;-81
2023/01/17 05:55:31;;;;;;;2.13;1.17;;;;;;;5.67;100.00;97760.91;6272338;28;20059;-84
2023/01/17 05:58:31;;;;;;;1.17;1.08;;;;;;;5.69;100.00;97757.25;6273747;28;20485;-84
2023/01/17 06:01:34;;;;;;;3.67;1.38;;;;;;;5.88;100.00;97767.00;6272322;28;20167;-84
2023/01/17 06:04:36;;;;;;;1.70;1.30;;;;;;;5.84;100.00;97755.25;6271914;28;20128;-84
2023/01/17 06:07:39;;;;;;;4.30;1.65;;;;;;;5.94;100.00;97748.41;6271327;28;20063;-83
2023/01/17 06:10:40;;;;;;;1.90;1.17;;;;;;;5.90;100.00;97757.34;6272331;28;20051;-81
2023/01/17 06:13:43;;;;;;;1.38;1.13;;;;;;;5.90;100.00;97747.00;6271259;28;20045;-84
2023/01/17 06:16:46;;;;;;;2.15;1.35;;;;;;;5.94;100.00;97758.75;6272477;28;20047;-84
2023/01/17 06:19:47;;;;;;;2.72;1.63;;;;;;;5.94;100.00;97763.94;6272297;28;20468;-85
2023/01/17 06:22:48;;;;;;;0.80;0.80;;;;;;;5.99;100.00;97774.81;6272195;28;20499;-84
2023/01/17 06:25:49;;;;;;;4.60;1.75;;;;;;;6.06;100.00;97777.72;6270923;28;20382;-84
2023/01/17 06:28:50;;;;;;;1.90;1.00;;;;;;;5.92;100.00;97765.81;6270755;28;20502;-85
2023/01/17 06:31:55;;;;;;;1.88;1.45;;;;;;;5.98;100.00;97765.38;6270714;28;20055;-81
2023/01/17 06:34:57;;;;;;;8.57;1.30;;;;;;;5.85;100.00;97765.47;6272016;28;20037;-81
2023/01/17 06:37:59;;;;;;;3.28;1.98;;;;;;;5.94;100.00;97781.25;6270662;28;20040;-80
2023/01/17 06:41:03;;;;;;;1.73;1.33;;;;;;;5.99;100.00;97794.66;6271644;28;20040;-81
2023/01/17 06:44:04;;;;;;;1.58;1.30;;;;;;;5.97;100.00;97787.03;6271714;28;20037;-80
2023/01/17 06:47:04;;;;;;;2.60;2.08;;;;;;;5.94;100.00;97805.34;6270473;28;20501;-81
2023/01/17 06:50:07;;;;;;;5.43;1.73;;;;;;;5.99;100.00;97810.19;6269973;28;20037;-81
2023/01/17 06:53:09;;;;;;;3.13;1.40;;;;;;;5.98;100.00;97814.56;6271159;28;20053;-84
2023/01/17 06:56:12;;;;;;;4.00;2.03;;;;;;;5.86;100.00;97802.53;6270355;28;20044;-82
2023/01/17 06:59:13;;;;;;;2.60;1.27;;;;;;;6.02;100.00;97815.16;6253624;28;20053;-85
2023/01/17 07:02:14;;;;;;;1.90;1.65;;;;;;;5.95;100.00;97811.38;6270268;28;20504;-85
2023/01/17 07:05:16;;;;;;;1.55;1.38;;;;;;;5.96;100.00;97820.81;6270148;28;20489;-81
2023/01/17 07:08:18;;;;;;;2.45;2.17;;;;;;;5.94;100.00;97827.84;6270011;28;20072;-81
2023/01/17 07:11:18;;;;;;;3.35;1.75;;;;;;;6.03;100.00;97840.06;6270049;28;20382;-82
2023/01/17 07:14:19;;;;;;;2.63;1.08;;;;;;;5.94;100.00;97839.00;6271217;28;20045;-81
2023/01/17 07:17:20;;;;;;;2.33;1.75;;;;;;;5.94;100.00;97836.41;6270061;28;20072;-84
2023/01/17 07:20:21;;;;;;;3.10;1.95;;;;;;;5.97;100.00;97851.75;6269941;28;20060;-85
2023/01/17 07:23:23;;;;;;;3.45;1.80;;;;;;;5.99;100.00;97849.88;6269874;28;20044;-82
2023/01/17 07:26:24;;;;;;;1.73;1.58;;;;;;;5.95;100.00;97855.38;6271208;28;20037;-81
2023/01/17 07:29:25;;;;;;;4.75;1.80;;;;;;;6.00;100.00;97867.03;6253276;28;20045;-81
2023/01/17 07:32:26;;;;;;;5.53;2.75;;;;;;;6.03;100.00;97866.81;6270025;28;20041;-84
2023/01/17 07:35:27;;;;;;;2.83;1.85;;;;;;;6.05;100.00;97875.28;6271006;28;20072;-82
2023/01/17 07:38:30;;;;;;;2.25;1.58;;;;;;;5.99;100.00;97869.72;6253154;28;20049;-85
2023/01/17 07:41:31;;;;;;;1.90;1.42;;;;;;;5.96;100.00;97868.22;6269721;28;20044;-84
2023/01/17 07:44:32;;;;;;;2.53;1.98;;;;;;;6.05;100.00;97871.84;6269682;28;20045;-83
2023/01/17 07:47:33;;;;;;;3.22;2.30;;;;;;;6.08;100.00;97884.56;6269623;28;20056;-85
2023/01/17 07:50:35;;;;;;;2.22;2.03;;;;;;;6.13;100.00;97891.97;6269558;28;20080;-85
2023/01/17 07:53:36;;;;;;;2.42;1.67;;;;;;;6.18;100.00;97900.22;6269623;28;20053;-85
2023/01/17 07:56:39;;;;;;;2.30;2.05;;;;;;;6.11;100.00;97902.44;6269547;28;20044;-81
2023/01/17 07:59:40;;;;;;;3.42;2.33;;;;;;;6.25;100.00;97898.81;6270794;28;20120;-81
2023/01/17 08:02:41;;;;;;;2.95;2.05;;;;;;;6.13;100.00;97907.50;6272074;28;20036;-85
2023/01/17 08:05:43;;;;;;;2.40;2.03;;;;;;;6.16;100.00;97895.16;6274201;28;20045;-85
2023/01/17 08:08:44;;;;;;;3.75;2.20;;;;;;;6.24;100.00;97910.94;6257444;28;20110;-83
2023/01/17 08:11:45;;;;;;;1.55;1.38;;;;;;;6.35;100.00;97912.69;6274046;28;20591;-84
2023/01/17 08:14:46;;;;;;;3.58;2.65;;;;;;;6.43;100.00;97918.09;6273854;28;20041;-84
2023/01/17 08:17:52;;;;;;;4.18;2.25;;;;;;;6.47;100.00;97921.28;6257352;28;20060;-85
2023/01/17 08:20:53;;;;;;;4.28;2.53;;;;;;;6.49;100.00;97913.38;6274980;28;20041;-85
2023/01/17 08:23:53;;;;;;;6.20;2.63;;;;;;;6.78;100.00;97913.69;6273651;28;20448;-85
2023/01/17 08:26:55;;;;;;;2.75;1.90;;;;;;;6.69;100.00;97922.97;6257112;28;20052;-85
2023/01/17 08:29:55;;;;;;;3.45;1.80;;;;;;;6.72;100.00;97925.34;6256945;28;20057;-85
2023/01/17 08:32:59;;;;;;;2.38;1.95;;;;;;;6.77;100.00;97923.19;6274712;28;20087;-81
2023/01/17 08:35:59;;;;;;;2.45;2.00;;;;;;;6.70;100.00;97926.41;6273428;28;20051;-81
2023/01/17 08:39:02;;;;;;;3.42;2.20;;;;;;;6.58;100.00;97930.78;6273397;28;20045;-81
2023/01/17 08:42:03;;;;;;;1.50;1.40;;;;;;;6.55;100.00;97937.03;6273372;28;20049;-81
2023/01/17 08:45:07;;;;;;;2.13;1.75;;;;;;;6.62;100.00;97943.38;6273199;28;20060;-81
2023/01/17 08:48:07;;;;;;;2.40;1.50;;;;;;;6.68;100.00;97930.91;6273234;28;20040;-84
2023/01/17 08:51:09;;;;;;;5.03;2.42;;;;;;;6.93;100.00;97960.88;6273290;28;20497;-85
2023/01/17 08:54:12;;;;;;;2.00;1.83;;;;;;;6.86;100.00;97968.34;6274672;28;20033;-84
2023/01/17 08:57:15;;;;;;;4.55;2.47;;;;;;;6.77;100.00;97961.25;6256375;28;20448;-82
2023/01/17 09:00:16;;;;;;;2.22;1.75;;;;;;;7.21;100.00;97954.31;6256223;28;20048;-83
2023/01/17 09:03:17;;;;;;;3.60;1.08;;;;;;;7.33;100.00;97961.13;6272753;28;20455;-83
2023/01/17 09:06:21;;;;;;;1.45;1.27;;;;;;;7.44;100.00;97968.84;6272934;28;20068;-81
2023/01/17 09:09:25;;;;;;;2.50;1.95;;;;;;;7.64;100.00;97956.84;6272650;28;20452;-81
2023/01/17 09:12:25;;;;;;;4.75;1.67;;;;;;;7.58;100.00;97972.91;6272314;28;20040;-81
2023/01/17 09:15:26;;;;;;;2.03;1.77;;;;;;;7.61;100.00;97975.25;6272504;28;20047;-81
2023/01/17 09:18:29;;;;;;;3.08;1.95;;;;;;;7.54;100.00;97976.72;6273726;28;20045;-81
2023/01/17 09:21:29;;;;;;;;;;;;;;;7.57;100.00;97986.00;6272853;28;20465;-82
2023/01/17 09:24:31;;;;;;;0.95;0.93;;;;;;;7.32;100.00;97977.63;6272208;28;19974;-81
2023/01/17 09:27:34;;;;;;;1.97;1.50;;;;;;;7.34;100.00;97980.91;6255651;28;20080;-81
2023/01/17 09:30:35;;;;;;;1.80;1.30;;;;;;;7.41;100.00;97992.47;6272473;28;20037;-82
2023/01/17 09:33:41;;;;;;;2.22;1.33;;;;;;;7.45;100.00;98006.84;6272219;28;20595;-84
2023/01/17 09:36:42;;;;;;;2.03;1.15;;;;;;;7.26;100.00;98011.84;6273389;28;20090;-80
2023/01/17 09:39:43;;;;;;;1.52;1.42;;;;;;;7.43;100.00;98002.69;6273399;28;20448;-81
2023/01/17 09:42:44;;;;;;;1.05;0.90;;;;;;;7.32;100.00;98008.75;6271901;28;20094;-81
2023/01/17 09:45:45;;;;;;;1.90;1.38;;;;;;;7.33;100.00;97994.00;6271846;28;20068;-81
2023/01/17 09:48:50;;;;;;;2.85;1.52;;;;;;;7.40;100.00;97997.75;6271798;28;20051;-81
2023/01/17 09:51:52;;;;;;;1.58;1.20;;;;;;;7.46;100.00;97995.50;6271622;28;20520;-81
2023/01/17 09:54:53;;;;;;;0.55;0.55;;;;;;;7.61;100.00;97988.22;6271453;28;20049;-81
2023/01/17 09:57:57;;;;;;;0.70;0.70;;;;;;;7.63;100.00;97995.88;6271793;28;20037;-81
2023/01/17 10:01:13;;;;;;;1.13;0.77;;;;;;;7.65;100.00;97994.00;6271489;28;20408;-80
2023/01/17 10:04:39;;;;;;;1.85;1.25;;;;;;;7.60;100.00;97991.78;6271496;28;20048;-80
2023/01/17 10:07:52;;;;;;;2.30;1.08;;;;;;;7.66;100.00;98000.84;6271317;28;20041;-79
2023/01/17 10:11:21;;;;;;;2.58;1.48;;;;;;;7.73;100.00;98001.97;6271225;28;20103;-81
2023/01/17 10:14:25;;;;;;;1.50;1.10;;;;;;;7.55;100.00;98001.69;6271353;28;20045;-84
2023/01/17 10:17:56;;;;;;;2.08;1.00;;;;;;;7.53;100.00;98010.56;6271069;28;20053;-83
2023/01/17 10:21:13;;;;;;;1.17;1.08;;;;;;;7.58;100.00;98004.06;6271112;28;20478;-84
2023/01/17 10:24:23;;;;;;;1.08;0.98;;;;;;;7.50;100.00;98021.22;6253453;28;20044;-83
2023/01/17 10:27:32;;;;;;;3.35;1.77;;;;;;;7.44;100.00;97991.38;6271073;28;20477;-84
2023/01/17 10:30:42;;;;;;;2.03;1.38;;;;;;;7.58;100.00;98001.47;6271959;28;20052;-84
2023/01/17 10:33:50;;;;;;;0.60;0.60;;;;;;;7.40;100.00;98003.78;6270683;28;20140;-83
2023/01/17 10:37:20;;;;;;;1.13;1.02;;;;;;;7.46;100.00;97998.09;6253971;28;20060;-83
2023/01/17 10:40:39;;;;;;;0.57;0.57;;;;;;;7.39;100.00;97986.56;6264612;28;20436;-83
2023/01/17 10:43:51;;;;;;;7.28;1.27;;;;;;;7.42;100.00;97994.09;6270365;28;20055;-84
2023/01/17 10:46:55;;;;;;;1.25;0.82;;;;;;;7.35;100.00;97979.97;6271859;28;20036;-84
2023/01/17 10:49:58;;;;;;;1.60;1.13;;;;;;;7.45;100.00;97978.28;6271636;28;20051;-84
2023/01/17 10:53:42;;;;;;;0.68;0.68;;;;;;;7.50;100.00;97975.31;6271439;28;20057;-83
2023/01/17 10:56:45;;;;;;;2.17;1.42;;;;;;;7.61;100.00;97971.84;6211311;28;20056;-84
2023/01/17 10:59:46;;;;;;;1.52;1.10;;;;;;;7.51;100.00;97970.94;6270392;28;20045;-80
2023/01/17 11:02:49;;;;;;;1.23;0.85;;;;;;;7.56;100.00;97986.97;6253575;28;20060;-80
2023/01/17 11:06:17;;;;;;;1.23;0.70;;;;;;;7.54;100.00;97987.09;6271288;28;20052;-80
2023/01/17 11:09:19;;;;;;;3.15;1.08;;;;;;;7.74;100.00;97969.91;6245907;28;20079;-79
2023/01/17 11:12:52;;;;;;;;;;;;;;;8.01;100.00;97973.72;6253890;28;20053;-80
2023/01/17 11:16:01;;;;;;;0.45;0.32;;;;;;;8.01;100.00;97968.53;6210248;28;19920;-80
2023/01/17 11:19:27;;;;;;;2.85;0.77;;;;;;;7.93;100.00;97965.75;6271766;28;20510;-80
2023/01/17 11:22:29;;;;;;;7.15;1.00;;;;;;;8.08;100.00;97970.50;6271235;28;20386;-80
2023/01/17 11:25:34;;;;;;;1.23;0.90;;;;;;;8.30;100.00;97962.66;6253245;28;20107;-80
2023/01/17 11:28:38;;;;;;;0.60;0.60;;;;;;;8.30;100.00;97953.09;6270169;28;20052;-79
2023/01/17 11:31:38;;;;;;;0.82;0.75;;;;;;;8.59;100.00;97955.84;6271061;28;20037;-79
2023/01/17 11:34:39;;;;;;;3.63;1.50;;;;;;;8.86;100.00;97964.78;6269934;28;20090;-79
2023/01/17 11:38:20;;;;;;;2.50;1.13;;;;;;;8.89;100.00;97972.31;6274230;28;20112;-80
2023/01/17 11:41:23;;;;;;;2.22;1.42;;;;;;;9.08;100.00;97969.75;6269926;28;20575;-80
2023/01/17 11:44:32;;;;;;;0.95;0.82;;;;;;;9.01;100.00;97962.63;6275756;28;20041;-80
2023/01/17 11:47:33;;;;;;;2.17;1.60;;;;;;;9.23;100.00;97957.19;6274440;28;20098;-80
2023/01/17 11:50:56;;;;;;;1.90;1.10;;;;;;;8.96;100.00;97955.22;6274460;28;20455;-79
2023/01/17 11:54:28;;;;;;;2.58;1.77;;;;;;;8.84;100.00;97966.72;6274412;28;20048;-80
2023/01/17 11:57:36;;;;;;;0.98;0.93;;;;;;;9.07;98.58;97956.88;6267124;28;20140;-80
2023/01/17 12:00:44;;;;;;;2.30;1.20;;;;;;;8.61;100.00;97950.50;6274390;28;20498;-80
2023/01/17 12:04:17;;;;;;;3.63;1.88;;;;;;;8.51;100.00;97955.66;6275596;28;20095;-79
2023/01/17 12:07:18;;;;;;;;;;;;;;;8.23;100.00;97949.38;6257994;28;20198;-79
2023/01/17 12:10:28;;;;;;;1.42;1.10;;;;;;;8.21;100.00;97933.91;6257356;28;19921;-79
2023/01/17 12:14:00;;;;;;;1.67;0.88;;;;;;;8.39;100.00;97943.69;6275303;28;20041;-80
2023/01/17 12:17:13;;;;;;;3.78;1.15;;;;;;;8.53;100.00;97947.75;6275001;28;20378;-79
2023/01/17 12:20:25;;;;;;;1.15;0.93;;;;;;;8.87;100.00;97948.22;6273916;28;20047;-79
2023/01/17 12:23:49;;;;;;;1.15;1.00;;;;;;;8.57;100.00;97936.94;6257010;28;20558;-79
2023/01/17 12:26:59;;;;;;;1.48;1.05;;;;;;;8.46;100.00;97952.63;6274987;28;20033;-79
2023/01/17 12:30:26;;;;;;;1.33;0.82;;;;;;;8.49;100.00;97949.78;6273726;28;20044;-79
2023/01/17 12:33:50;;;;;;;2.75;1.13;;;;;;;8.49;100.00;97954.16;6273604;28;20522;-80
2023/01/17 12:37:20;;;;;;;1.17;0.90;;;;;;;8.53;100.00;97958.97;6273723;28;20048;-79
2023/01/17 12:40:23;;;;;;;0.50;0.50;;;;;;;8.44;100.00;97964.94;6270380;28;20079;-79
2023/01/17 12:43:29;;;;;;;1.10;0.68;;;;;;;9.01;99.32;97967.84;6274533;28;20041;-79
2023/01/17 12:46:48;;;;;;;3.05;1.42;;;;;;;9.11;97.29;97955.66;6273277;28;20068;-80
2023/01/17 12:50:02;;;;;;;1.40;0.85;;;;;;;9.05;96.28;97964.81;6267605;28;20091;-79
2023/01/17 12:53:21;;;;;;;1.70;1.23;;;;;;;9.32;93.41;97963.34;6245445;28;20377;-79
2023/01/17 12:56:35;;;;;;;0.57;0.52;;;;;;;8.95;92.66;97957.97;6248888;28;20045;-79
2023/01/17 13:00:11;;;;;;;1.15;0.77;;;;;;;8.91;93.51;97965.19;6248943;28;20038;-79
2023/01/17 13:03:28;;;;;;;1.20;0.80;;;;;;;8.63;95.17;97956.41;6248368;28;20481;-79
2023/01/17 13:07:00;;;;;;;2.40;1.20;;;;;;;8.66;97.11;97959.53;6249627;28;20463;-79
2023/01/17 13:10:38;;;;;;;0.70;0.70;;;;;;;8.47;95.69;97957.69;6248863;28;20049;-79
2023/01/17 13:13:40;;;;;;;0.95;0.70;;;;;;;8.57;96.96;97968.13;6232242;28;20141;-79
2023/01/17 13:16:52;;;;;;;2.43;1.10;;;;;;;8.57;99.11;97977.72;6248296;28;20133;-79
2023/01/17 13:19:56;;;;;;;;;;;;;;;8.54;99.97;97972.78;6250080;28;20041;-79
2023/01/17 13:23:07;;;;;;;5.03;2.80;;;;;;;8.50;100.00;97974.00;6231784;28;20101;-79
2023/01/17 13:26:25;;;;;;;2.78;1.45;;;;;;;8.45;100.00;97983.00;6231874;28;20133;-79
2023/01/17 13:29:35;;;;;;;5.43;3.42;;;;;;;8.36;100.00;97993.31;6264532;28;20046;-79
2023/01/17 13:32:53;;;;;;;3.45;1.65;;;;;;;8.57;100.00;97988.13;6247738;28;20053;-78
2023/01/17 13:36:28;;;;;;;0.68;0.68;;;;;;;8.59;99.60;97988.81;6247864;28;20045;-79
2023/01/17 13:40:00;;;;;;;4.20;2.30;;;;;;;8.71;98.00;97982.56;6247981;28;20043;-80
2023/01/17 13:43:12;;;;;;;3.00;1.65;;;;;;;8.75;97.99;97983.09;6247717;28;20042;-79
2023/01/17 13:46:13;;;;;;;2.28;1.50;;;;;;;8.51;98.24;97970.44;6247602;28;20047;-79
2023/01/17 13:49:41;;;;;;;2.17;1.15;;;;;;;8.56;97.55;97984.69;6247457;28;20348;-79
2023/01/17 13:52:42;;;;;;;1.35;1.08;;;;;;;8.42;98.90;97990.22;6247240;28;20545;-79
2023/01/17 13:55:49;;;;;;;1.67;1.30;;;;;;;8.25;100.00;97992.44;6247322;28;20044;-79
2023/01/17 13:59:01;;;;;;;1.15;1.05;;;;;;;8.23;100.00;97996.13;6246480;28;20049;-79
2023/01/17 14:02:02;;;;;;;1.27;0.85;;;;;;;8.22;100.00;98000.50;6247178;28;20052;-79
2023/01/17 14:05:12;;;;;;;0.75;0.60;;;;;;;8.14;100.00;98007.31;6246952;28;20116;-79
2023/01/17 14:08:20;;;;;;;1.85;1.02;;;;;;;8.03;100.00;98015.97;6247079;28;20042;-79
2023/01/17 14:11:21;;;;;;;1.60;0.80;;;;;;;8.05;100.00;98001.06;6230453;28;20426;-79
2023/01/17 14:14:40;;;;;;;4.88;0.88;;;;;;;8.14;100.00;97996.91;6248175;28;20045;-79
2023/01/17 14:17:56;;;;;;;2.22;1.20;;;;;;;8.11;100.00;97991.97;6263261;28;20073;-79
2023/01/17 14:21:25;;;;;;;1.15;0.73;;;;;;;7.99;100.00;97991.19;6246899;28;20057;-79
2023/01/17 14:24:25;;;;;;;1.65;1.13;;;;;;;7.94;100.00;97983.81;6244353;28;20156;-79
2023/01/17 14:27:29;;;;;;;2.67;1.42;;;;;;;7.98;100.00;97981.78;6246700;28;20416;-79
2023/01/17 14:30:35;;;;;;;3.85;1.33;;;;;;;7.90;100.00;97985.00;6246474;28;20124;-79
2023/01/17 14:33:38;;;;;;;2.17;1.10;;;;;;;7.85;100.00;97997.56;6246446;28;20064;-79
2023/01/17 14:36:39;;;;;;;3.70;1.70;;;;;;;7.79;100.00;97982.47;6262818;28;20477;-78
2023/01/17 14:39:48;;;;;;;1.02;0.88;;;;;;;7.81;100.00;97993.56;6246441;28;20041;-79
2023/01/17 14:43:05;;;;;;;1.92;1.42;;;;;;;7.86;100.00;97994.84;6247496;28;20076;-79
2023/01/17 14:46:24;;;;;;;1.23;1.10;;;;;;;7.80;100.00;97995.34;6247474;28;20120;-79
2023/01/17 14:49:25;;;;;;;0.70;0.70;;;;;;;7.86;100.00;98000.03;6247451;28;20041;-79
2023/01/17 14:52:26;;;;;;;1.15;1.00;;;;;;;7.82;100.00;97995.19;6247181;28;20461;-80
2023/01/17 14:55:27;;;;;;;4.35;1.98;;;;;;;7.72;100.00;97987.38;6247156;28;20053;-79
2023/01/17 14:58:38;;;;;;;3.78;2.28;;;;;;;7.62;100.00;97989.06;6247181;28;20095;-80
2023/01/17 15:01:42;;;;;;;11.55;6.45;;;;;;;7.59;100.00;98003.09;6229432;28;20107;-79
2023/01/17 15:04:51;;;;;;;19.02;10.25;;;;;;;7.51;100.00;97989.09;6245696;28;20045;-79
2023/01/17 15:07:55;;;;;;;18.40;9.88;;;;;;;7.53;100.00;97988.03;6246159;28;20037;-79
2023/01/17 15:11:04;;;;;;;17.17;7.53;;;;;;;7.50;100.00;97988.28;6246714;28;20123;-79
2023/01/17 15:14:05;;;;;;;13.90;5.78;;;;;;;7.43;100.00;97968.97;6247066;28;20045;-79
2023/01/17 15:17:09;;;;;;;15.93;8.35;;;;;;;7.44;100.00;97971.44;6245896;28;20037;-78
2023/01/17 15:20:15;;;;;;;19.73;8.30;;;;;;;7.43;100.00;97954.22;6245643;28;20038;-79
2023/01/17 15:23:20;;;;;;;17.48;6.75;;;;;;;7.41;100.00;97950.09;6229196;28;20136;-79
2023/01/17 15:26:24;;;;;;;40.15;17.38;;;;;;;7.35;100.00;97956.63;6245628;28;20052;-79
2023/01/17 15:29:33;;;;;;;26.65;11.85;;;;;;;7.30;100.00;97948.38;6245717;28;20044;-79
2023/01/17 15:32:36;;;;;;;13.38;7.60;;;;;;;7.30;100.00;97952.75;6245591;28;20401;-79
2023/01/17 15:35:37;;;;;;;7.13;4.38;;;;;;;7.28;100.00;97958.06;6228914;28;20056;-79
2023/01/17 15:38:46;;;;;;;24.63;8.40;;;;;;;7.15;100.00;97945.25;6245430;28;20046;-79
2023/01/17 15:41:52;;;;;;;13.20;6.82;;;;;;;7.23;100.00;97961.03;6245535;28;20045;-79
2023/01/17 15:44:56;;;;;;;19.38;10.43;;;;;;;7.18;100.00;97960.56;6261793;28;20124;-79
2023/01/17 15:48:17;;;;;;;21.70;10.82;;;;;;;7.12;100.00;97945.50;6246768;28;20056;-79
2023/01/17 15:51:35;;;;;;;24.80;11.30;;;;;;;7.11;100.00;97948.22;6245071;28;20065;-79
2023/01/17 15:54:49;;;;;;;27.50;13.07;;;;;;;7.01;100.00;97932.56;6246472;28;20568;-79
2023/01/17 15:57:50;;;;;;;93.40;40.83;;;;;;;6.94;100.00;97916.69;6245397;28;20041;-79
2023/01/17 16:00:50;;;;;;;86.90;35.65;;;;;;;6.89;100.00;97912.81;6245084;28;20060;-79
2023/01/17 16:03:57;;;;;;;43.75;20.20;;;;;;;6.86;100.00;97901.75;6245123;28;20037;-79
2023/01/17 16:07:19;;;;;;;43.72;19.58;;;;;;;6.88;100.00;97917.19;6245120;28;20099;-79
2023/01/17 16:10:21;;;;;;;21.60;10.52;;;;;;;6.94;100.00;97908.06;6245125;28;20041;-79
2023/01/17 16:13:22;;;;;;;11.75;6.25;;;;;;;6.93;100.00;97906.44;6246342;28;20041;-79
2023/01/17 16:16:26;;;;;;;7.85;4.88;;;;;;;6.93;100.00;97922.00;6246202;28;20560;-79
2023/01/17 16:19:26;;;;;;;7.50;4.30;;;;;;;6.85;100.00;97920.00;6245056;28;20065;-79
2023/01/17 16:22:30;;;;;;;7.65;3.88;;;;;;;6.80;100.00;97933.34;6246763;28;20513;-79
2023/01/17 16:25:33;;;;;;;7.30;3.70;;;;;;;6.91;100.00;97927.28;6249431;28;20382;-79
2023/01/17 16:28:40;;;;;;;6.22;3.28;;;;;;;7.00;100.00;97928.31;6249311;28;20045;-79
2023/01/17 16:31:41;;;;;;;5.15;2.83;;;;;;;6.95;100.00;97917.50;6249413;28;20084;-80